CPA34M UHPP-RJBH
Flight info
| Callsign | CPA34M |
|---|---|
| Flight time | N/A |
| Altitude | 34000 |
| Route | SAMIK4D SAMIK T577 UB G583 LATAK/K0904F360 G583 BISIV/N0488F360 G583 MVE Y116 LUBEK V8 AWE Y116 CHE Y12 TAPPI Z16 MIHOU Y45 CARPS |
| Aircraft | L101/H-DFHILRY/S |
Departure
| Time | N/A |
|---|---|
| Airport | Yelizovo Airport (UHPP) |
Arrival
| Time | 2026-04-17 22:39 |
|---|---|
| Airport | Hiroshima Heliport (RJBH) |
| Time | Latitude | Longitude | Altitude | Speed | Heading |
|---|---|---|---|---|---|
| 2026-04-17 20:22 | 43.62483 | 142.42233 | 37916 ft | 416 kts | 218° |
| 2026-04-17 20:23 | 43.57328 | 142.38482 | 37938 ft | 420 kts | 213° |
| 2026-04-17 20:23 | 43.52104 | 142.34987 | 37916 ft | 419 kts | 214° |
| 2026-04-17 20:24 | 43.46966 | 142.31238 | 37937 ft | 417 kts | 216° |
| 2026-04-17 20:24 | 43.41957 | 142.27253 | 37932 ft | 415 kts | 218° |
| 2026-04-17 20:25 | 43.37016 | 142.23159 | 37933 ft | 415 kts | 218° |
| 2026-04-17 20:25 | 43.32077 | 142.19086 | 37937 ft | 414 kts | 218° |
| 2026-04-17 20:26 | 43.27106 | 142.15064 | 37955 ft | 415 kts | 217° |
| 2026-04-17 20:26 | 43.22958 | 142.11755 | 37943 ft | 415 kts | 217° |
| 2026-04-17 20:27 | 43.17965 | 142.07787 | 37948 ft | 413 kts | 217° |
| 2026-04-17 20:27 | 43.12177 | 142.03209 | 37950 ft | 413 kts | 218° |
| 2026-04-17 20:28 | 43.08016 | 141.99889 | 37966 ft | 413 kts | 217° |
| 2026-04-17 20:28 | 43.03036 | 141.95943 | 37965 ft | 413 kts | 217° |
| 2026-04-17 20:29 | 42.98102 | 141.92034 | 37959 ft | 413 kts | 217° |
| 2026-04-17 20:29 | 42.93131 | 141.88101 | 37969 ft | 413 kts | 217° |
| 2026-04-17 20:30 | 42.85665 | 141.82216 | 37956 ft | 413 kts | 218° |
| 2026-04-17 20:30 | 42.80691 | 141.78309 | 37960 ft | 413 kts | 217° |
| 2026-04-17 20:31 | 42.75727 | 141.74392 | 37962 ft | 412 kts | 217° |
| 2026-04-17 20:31 | 42.70770 | 141.70501 | 37961 ft | 412 kts | 217° |
| 2026-04-17 20:32 | 42.65906 | 141.66449 | 37974 ft | 408 kts | 221° |
| 2026-04-17 20:32 | 42.61287 | 141.62002 | 37967 ft | 407 kts | 223° |
| 2026-04-17 20:33 | 42.56720 | 141.57438 | 37973 ft | 408 kts | 222° |
| 2026-04-17 20:33 | 42.52088 | 141.52963 | 37976 ft | 409 kts | 221° |
| 2026-04-17 20:34 | 42.47381 | 141.48605 | 37952 ft | 410 kts | 221° |
| 2026-04-17 20:34 | 42.42663 | 141.44276 | 37979 ft | 410 kts | 221° |
| 2026-04-17 20:35 | 42.37985 | 141.39945 | 37980 ft | 410 kts | 221° |
| 2026-04-17 20:35 | 42.33275 | 141.35586 | 37978 ft | 410 kts | 221° |
| 2026-04-17 20:36 | 42.28569 | 141.31231 | 37966 ft | 410 kts | 221° |
| 2026-04-17 20:36 | 42.23866 | 141.26864 | 37980 ft | 411 kts | 221° |
| 2026-04-17 20:37 | 42.19154 | 141.22511 | 37980 ft | 411 kts | 221° |
| 2026-04-17 20:37 | 42.14430 | 141.18168 | 37978 ft | 411 kts | 221° |
| 2026-04-17 20:38 | 42.09701 | 141.13834 | 37976 ft | 411 kts | 221° |
| 2026-04-17 20:38 | 42.04968 | 141.09505 | 37977 ft | 411 kts | 221° |
| 2026-04-17 20:39 | 42.00266 | 141.05209 | 37971 ft | 412 kts | 221° |
| 2026-04-17 20:39 | 41.95532 | 141.00887 | 37971 ft | 412 kts | 221° |
| 2026-04-17 20:40 | 41.90753 | 140.96553 | 37968 ft | 412 kts | 221° |
| 2026-04-17 20:40 | 41.86030 | 140.92294 | 37981 ft | 412 kts | 221° |
| 2026-04-17 20:41 | 41.81284 | 140.87977 | 37959 ft | 413 kts | 221° |
| 2026-04-17 20:41 | 41.76519 | 140.83642 | 37975 ft | 414 kts | 221° |
| 2026-04-17 20:42 | 41.71941 | 140.79077 | 37967 ft | 408 kts | 225° |
| 2026-04-17 20:42 | 41.67548 | 140.74282 | 37966 ft | 407 kts | 226° |
| 2026-04-17 20:43 | 41.63178 | 140.69472 | 37971 ft | 407 kts | 225° |
| 2026-04-17 20:43 | 41.58752 | 140.64740 | 37972 ft | 408 kts | 225° |
| 2026-04-17 20:44 | 41.54288 | 140.60075 | 37982 ft | 408 kts | 224° |
| 2026-04-17 20:44 | 41.49810 | 140.55429 | 37983 ft | 407 kts | 224° |
| 2026-04-17 20:45 | 41.45374 | 140.50810 | 37961 ft | 407 kts | 225° |
| 2026-04-17 20:45 | 41.40900 | 140.46157 | 37988 ft | 408 kts | 225° |
| 2026-04-17 20:46 | 41.36429 | 140.41516 | 37987 ft | 407 kts | 225° |
| 2026-04-17 20:46 | 41.31964 | 140.36881 | 37979 ft | 407 kts | 225° |
| 2026-04-17 20:47 | 41.27495 | 140.32246 | 37999 ft | 407 kts | 225° |
| 2026-04-17 20:47 | 41.23023 | 140.27615 | 38000 ft | 407 kts | 225° |
| 2026-04-17 20:48 | 41.18553 | 140.22995 | 38003 ft | 407 kts | 225° |
| 2026-04-17 20:48 | 41.14074 | 140.18377 | 37988 ft | 407 kts | 225° |
| 2026-04-17 20:49 | 41.09642 | 140.13723 | 37969 ft | 406 kts | 226° |
| 2026-04-17 20:49 | 41.05315 | 140.08940 | 37991 ft | 405 kts | 227° |
| 2026-04-17 20:50 | 41.01039 | 140.04154 | 37983 ft | 405 kts | 226° |
| 2026-04-17 20:50 | 40.96715 | 139.99368 | 37982 ft | 405 kts | 226° |
| 2026-04-17 20:51 | 40.92361 | 139.94622 | 37992 ft | 406 kts | 226° |
| 2026-04-17 20:51 | 40.87996 | 139.89897 | 38001 ft | 406 kts | 226° |
| 2026-04-17 20:52 | 40.83623 | 139.85165 | 37997 ft | 406 kts | 226° |
| 2026-04-17 20:52 | 40.79261 | 139.80441 | 37993 ft | 406 kts | 226° |
| 2026-04-17 20:53 | 40.74898 | 139.75723 | 38006 ft | 405 kts | 226° |
| 2026-04-17 20:53 | 40.70540 | 139.71016 | 38007 ft | 405 kts | 226° |
| 2026-04-17 20:54 | 40.66181 | 139.66312 | 37996 ft | 405 kts | 226° |
| 2026-04-17 20:54 | 40.61844 | 139.61635 | 38009 ft | 406 kts | 226° |
| 2026-04-17 20:55 | 40.57449 | 139.56905 | 38014 ft | 406 kts | 226° |
| 2026-04-17 20:55 | 40.53110 | 139.52248 | 38029 ft | 406 kts | 226° |
| 2026-04-17 20:56 | 40.48734 | 139.47563 | 38014 ft | 406 kts | 226° |
| 2026-04-17 20:56 | 40.44342 | 139.42872 | 38017 ft | 407 kts | 226° |
| 2026-04-17 20:57 | 40.39948 | 139.38184 | 38018 ft | 407 kts | 226° |
| 2026-04-17 20:57 | 40.35558 | 139.33506 | 38009 ft | 407 kts | 226° |
| 2026-04-17 20:58 | 40.31156 | 139.28835 | 37981 ft | 406 kts | 226° |
| 2026-04-17 20:58 | 40.26766 | 139.24179 | 38013 ft | 406 kts | 226° |
| 2026-04-17 20:59 | 40.22375 | 139.19516 | 38018 ft | 407 kts | 226° |
| 2026-04-17 20:59 | 40.17978 | 139.14862 | 38019 ft | 407 kts | 226° |
| 2026-04-17 21:00 | 40.13574 | 139.10224 | 38026 ft | 406 kts | 226° |
| 2026-04-17 21:00 | 40.09175 | 139.05596 | 38024 ft | 406 kts | 226° |
| 2026-04-17 21:01 | 40.04778 | 139.00969 | 38012 ft | 406 kts | 226° |
| 2026-04-17 21:01 | 40.00366 | 138.96337 | 38028 ft | 407 kts | 226° |
| 2026-04-17 21:02 | 39.95954 | 138.91713 | 38029 ft | 407 kts | 226° |
| 2026-04-17 21:02 | 39.91542 | 138.87091 | 38016 ft | 407 kts | 226° |
| 2026-04-17 21:03 | 39.87159 | 138.82500 | 38028 ft | 407 kts | 226° |
| 2026-04-17 21:03 | 39.82739 | 138.77889 | 38031 ft | 407 kts | 226° |
| 2026-04-17 21:04 | 39.78318 | 138.73287 | 38036 ft | 407 kts | 226° |
| 2026-04-17 21:04 | 39.73894 | 138.68688 | 38036 ft | 407 kts | 226° |
| 2026-04-17 21:05 | 39.69473 | 138.64096 | 38035 ft | 407 kts | 226° |
| 2026-04-17 21:05 | 39.65046 | 138.59506 | 38040 ft | 407 kts | 226° |
| 2026-04-17 21:06 | 39.60620 | 138.54925 | 38032 ft | 407 kts | 226° |
| 2026-04-17 21:06 | 39.56186 | 138.50355 | 38046 ft | 407 kts | 226° |
| 2026-04-17 21:07 | 39.51756 | 138.45793 | 38035 ft | 406 kts | 226° |
| 2026-04-17 21:07 | 39.47364 | 138.41265 | 38041 ft | 406 kts | 226° |
| 2026-04-17 21:08 | 39.42942 | 138.36725 | 38038 ft | 406 kts | 226° |
| 2026-04-17 21:08 | 39.38504 | 138.32197 | 38045 ft | 406 kts | 226° |
| 2026-04-17 21:09 | 39.34068 | 138.27666 | 38047 ft | 406 kts | 226° |
| 2026-04-17 21:09 | 39.29640 | 138.23140 | 38044 ft | 406 kts | 226° |
| 2026-04-17 21:10 | 39.25499 | 138.18314 | 38050 ft | 397 kts | 234° |
| 2026-04-17 21:10 | 39.21973 | 138.12883 | 38051 ft | 393 kts | 237° |
| 2026-04-17 21:11 | 39.18615 | 138.07326 | 38049 ft | 393 kts | 237° |
| 2026-04-17 21:11 | 39.15134 | 138.01877 | 38042 ft | 393 kts | 235° |
| 2026-04-17 21:12 | 39.11549 | 137.96618 | 38027 ft | 393 kts | 234° |
| 2026-04-17 21:12 | 39.07870 | 137.91358 | 38048 ft | 393 kts | 234° |
| 2026-04-17 21:13 | 39.04230 | 137.86129 | 38053 ft | 392 kts | 235° |
| 2026-04-17 21:13 | 39.00645 | 137.80936 | 38055 ft | 390 kts | 235° |
| 2026-04-17 21:14 | 38.97062 | 137.75715 | 38052 ft | 389 kts | 235° |
| 2026-04-17 21:14 | 38.93479 | 137.70490 | 38055 ft | 389 kts | 235° |
| 2026-04-17 21:15 | 38.89898 | 137.65281 | 38057 ft | 389 kts | 235° |
| 2026-04-17 21:15 | 38.86312 | 137.60086 | 38058 ft | 388 kts | 235° |
| 2026-04-17 21:16 | 38.82728 | 137.54903 | 38059 ft | 388 kts | 235° |
| 2026-04-17 21:16 | 38.79145 | 137.49724 | 38051 ft | 388 kts | 235° |
| 2026-04-17 21:17 | 38.75590 | 137.44607 | 38060 ft | 386 kts | 235° |
| 2026-04-17 21:17 | 38.72015 | 137.39469 | 38060 ft | 386 kts | 235° |
| 2026-04-17 21:18 | 38.68442 | 137.34334 | 38061 ft | 386 kts | 235° |
| 2026-04-17 21:18 | 38.64875 | 137.29212 | 38066 ft | 386 kts | 235° |
| 2026-04-17 21:19 | 38.61306 | 137.24096 | 38051 ft | 385 kts | 235° |
| 2026-04-17 21:19 | 38.57734 | 137.18985 | 38062 ft | 385 kts | 235° |
| 2026-04-17 21:20 | 38.54164 | 137.13884 | 38040 ft | 385 kts | 235° |
| 2026-04-17 21:20 | 38.50618 | 137.08838 | 38060 ft | 384 kts | 235° |
| 2026-04-17 21:21 | 38.47053 | 137.03774 | 38067 ft | 383 kts | 235° |
| 2026-04-17 21:21 | 38.43490 | 136.98714 | 38070 ft | 383 kts | 235° |
| 2026-04-17 21:22 | 38.39930 | 136.93655 | 38070 ft | 383 kts | 235° |
| 2026-04-17 21:22 | 38.36966 | 136.89447 | 38070 ft | 383 kts | 235° |
| 2026-04-17 21:23 | 38.33399 | 136.84394 | 38073 ft | 383 kts | 235° |
| 2026-04-17 21:23 | 38.29827 | 136.79346 | 38055 ft | 383 kts | 235° |
| 2026-04-17 21:24 | 38.26255 | 136.74314 | 38070 ft | 383 kts | 235° |
| 2026-04-17 21:24 | 38.22686 | 136.69293 | 38073 ft | 383 kts | 235° |
| 2026-04-17 21:25 | 38.19114 | 136.64271 | 38073 ft | 383 kts | 235° |
| 2026-04-17 21:25 | 38.15566 | 136.59291 | 38066 ft | 382 kts | 235° |
| 2026-04-17 21:26 | 38.11993 | 136.54295 | 38076 ft | 382 kts | 235° |
| 2026-04-17 21:26 | 38.08424 | 136.49312 | 38082 ft | 381 kts | 235° |
| 2026-04-17 21:27 | 38.04855 | 136.44332 | 38075 ft | 381 kts | 235° |
| 2026-04-17 21:27 | 38.01283 | 136.39353 | 38079 ft | 381 kts | 235° |
| 2026-04-17 21:28 | 37.97714 | 136.34384 | 38077 ft | 381 kts | 235° |
| 2026-04-17 21:28 | 37.94139 | 136.29414 | 38078 ft | 381 kts | 235° |
| 2026-04-17 21:29 | 37.90567 | 136.24460 | 38075 ft | 381 kts | 235° |
| 2026-04-17 21:29 | 37.86991 | 136.19511 | 38077 ft | 381 kts | 235° |
| 2026-04-17 21:30 | 37.83439 | 136.14601 | 38083 ft | 381 kts | 235° |
| 2026-04-17 21:30 | 37.79867 | 136.09668 | 38067 ft | 380 kts | 235° |
| 2026-04-17 21:31 | 37.76290 | 136.04739 | 38078 ft | 380 kts | 235° |
| 2026-04-17 21:31 | 37.72712 | 135.99815 | 38081 ft | 380 kts | 235° |
| 2026-04-17 21:32 | 37.69135 | 135.94900 | 38080 ft | 380 kts | 235° |
| 2026-04-17 21:32 | 37.65583 | 135.90027 | 38083 ft | 380 kts | 235° |
| 2026-04-17 21:33 | 37.62005 | 135.85125 | 38086 ft | 380 kts | 235° |
| 2026-04-17 21:33 | 37.58425 | 135.80227 | 38084 ft | 380 kts | 234° |
| 2026-04-17 21:34 | 37.54841 | 135.75329 | 38083 ft | 380 kts | 234° |
| 2026-04-17 21:35 | 37.49466 | 135.67999 | 38081 ft | 379 kts | 234° |
| 2026-04-17 21:35 | 37.45884 | 135.63123 | 38084 ft | 380 kts | 234° |
| 2026-04-17 21:36 | 37.42297 | 135.58252 | 38066 ft | 379 kts | 234° |
| 2026-04-17 21:36 | 37.38721 | 135.53415 | 38081 ft | 380 kts | 234° |
| 2026-04-17 21:37 | 37.35125 | 135.48555 | 38082 ft | 380 kts | 234° |
| 2026-04-17 21:37 | 37.31529 | 135.43693 | 38096 ft | 379 kts | 234° |
| 2026-04-17 21:38 | 37.27938 | 135.38835 | 38089 ft | 380 kts | 234° |
| 2026-04-17 21:38 | 37.24345 | 135.33983 | 38089 ft | 380 kts | 234° |
| 2026-04-17 21:39 | 37.20743 | 135.29130 | 38087 ft | 380 kts | 234° |
| 2026-04-17 21:39 | 37.17143 | 135.24288 | 38088 ft | 380 kts | 234° |
| 2026-04-17 21:40 | 37.13558 | 135.19475 | 38084 ft | 380 kts | 234° |
| 2026-04-17 21:40 | 37.09950 | 135.14636 | 38086 ft | 380 kts | 234° |
| 2026-04-17 21:41 | 37.06342 | 135.09805 | 38090 ft | 380 kts | 234° |
| 2026-04-17 21:41 | 37.02725 | 135.04968 | 38089 ft | 380 kts | 234° |
| 2026-04-17 21:42 | 36.99106 | 135.00138 | 38090 ft | 381 kts | 234° |
| 2026-04-17 21:42 | 36.95480 | 134.95305 | 38080 ft | 380 kts | 234° |
| 2026-04-17 21:43 | 36.92471 | 134.91299 | 38087 ft | 380 kts | 234° |
| 2026-04-17 21:43 | 36.88234 | 134.85667 | 38058 ft | 381 kts | 234° |
| 2026-04-17 21:44 | 36.84630 | 134.80887 | 38082 ft | 381 kts | 234° |
| 2026-04-17 21:44 | 36.80999 | 134.76075 | 38085 ft | 381 kts | 234° |
| 2026-04-17 21:45 | 36.77366 | 134.71266 | 38084 ft | 381 kts | 234° |
| 2026-04-17 21:45 | 36.73730 | 134.66461 | 38087 ft | 381 kts | 234° |
| 2026-04-17 21:46 | 36.70093 | 134.61663 | 38083 ft | 381 kts | 234° |
| 2026-04-17 21:46 | 36.66446 | 134.56861 | 38085 ft | 381 kts | 234° |
| 2026-04-17 21:47 | 36.62799 | 134.52067 | 38087 ft | 381 kts | 234° |
| 2026-04-17 21:47 | 36.59153 | 134.47278 | 38084 ft | 381 kts | 234° |
| 2026-04-17 21:48 | 36.55500 | 134.42486 | 38085 ft | 382 kts | 234° |
| 2026-04-17 21:48 | 36.51865 | 134.37724 | 38087 ft | 382 kts | 234° |
| 2026-04-17 21:49 | 36.48205 | 134.32940 | 38091 ft | 382 kts | 234° |
| 2026-04-17 21:49 | 36.44547 | 134.28168 | 38085 ft | 381 kts | 234° |
| 2026-04-17 21:50 | 36.40890 | 134.23403 | 38083 ft | 381 kts | 234° |
| 2026-04-17 21:50 | 36.37228 | 134.18638 | 38071 ft | 381 kts | 234° |
| 2026-04-17 21:51 | 36.33564 | 134.13876 | 38068 ft | 381 kts | 234° |
| 2026-04-17 21:51 | 36.29889 | 134.09107 | 38085 ft | 383 kts | 234° |
| 2026-04-17 21:52 | 36.26207 | 134.04337 | 38087 ft | 383 kts | 234° |
| 2026-04-17 21:52 | 36.22519 | 133.99566 | 38084 ft | 383 kts | 234° |
| 2026-04-17 21:53 | 36.18832 | 133.94801 | 38096 ft | 383 kts | 234° |
| 2026-04-17 21:53 | 36.15149 | 133.90044 | 38094 ft | 383 kts | 234° |
| 2026-04-17 21:54 | 36.11461 | 133.85286 | 38088 ft | 383 kts | 234° |
| 2026-04-17 21:54 | 36.07801 | 133.80569 | 38082 ft | 383 kts | 234° |
| 2026-04-17 21:55 | 36.04111 | 133.75824 | 38083 ft | 383 kts | 234° |
| 2026-04-17 21:55 | 36.00418 | 133.71084 | 38089 ft | 383 kts | 234° |
| 2026-04-17 21:56 | 35.96721 | 133.66346 | 38040 ft | 384 kts | 234° |
| 2026-04-17 21:56 | 35.94866 | 133.63965 | 37588 ft | 384 kts | 234° |
| 2026-04-17 21:56 | 35.93033 | 133.61612 | 37081 ft | 376 kts | 233° |
| 2026-04-17 21:56 | 35.91235 | 133.59303 | 36624 ft | 371 kts | 233° |
| 2026-04-17 21:57 | 35.89455 | 133.57005 | 36200 ft | 371 kts | 233° |
| 2026-04-17 21:57 | 35.87675 | 133.54693 | 35738 ft | 373 kts | 233° |
| 2026-04-17 21:57 | 35.85885 | 133.52355 | 35324 ft | 375 kts | 233° |
| 2026-04-17 21:57 | 35.84092 | 133.50006 | 34900 ft | 378 kts | 233° |
| 2026-04-17 21:58 | 35.82286 | 133.47641 | 34483 ft | 380 kts | 232° |
| 2026-04-17 21:58 | 35.80470 | 133.45267 | 34059 ft | 382 kts | 232° |
| 2026-04-17 21:58 | 35.78639 | 133.42880 | 33557 ft | 384 kts | 232° |
| 2026-04-17 21:58 | 35.76793 | 133.40489 | 33070 ft | 386 kts | 232° |
| 2026-04-17 21:59 | 35.74931 | 133.38091 | 32586 ft | 389 kts | 231° |
| 2026-04-17 21:59 | 35.73052 | 133.35682 | 32121 ft | 391 kts | 231° |
| 2026-04-17 21:59 | 35.71160 | 133.33262 | 31645 ft | 394 kts | 231° |
| 2026-04-17 21:59 | 35.69253 | 133.30825 | 31181 ft | 396 kts | 231° |
| 2026-04-17 22:00 | 35.67337 | 133.28380 | 30713 ft | 399 kts | 231° |
| 2026-04-17 22:00 | 35.65405 | 133.25913 | 30251 ft | 401 kts | 231° |
| 2026-04-17 22:00 | 35.63463 | 133.23435 | 29723 ft | 404 kts | 231° |
| 2026-04-17 22:00 | 35.61504 | 133.20934 | 29224 ft | 407 kts | 231° |
| 2026-04-17 22:01 | 35.59562 | 133.18457 | 28704 ft | 409 kts | 230° |
| 2026-04-17 22:01 | 35.57579 | 133.15934 | 28188 ft | 412 kts | 230° |
| 2026-04-17 22:01 | 35.55579 | 133.13397 | 27644 ft | 415 kts | 230° |
| 2026-04-17 22:01 | 35.53534 | 133.10809 | 27134 ft | 419 kts | 229° |
| 2026-04-17 22:02 | 35.51341 | 133.08402 | 26610 ft | 427 kts | 222° |
| 2026-04-17 22:02 | 35.48880 | 133.06395 | 26099 ft | 435 kts | 216° |
| 2026-04-17 22:02 | 35.46144 | 133.04644 | 25594 ft | 442 kts | 211° |
| 2026-04-17 22:02 | 35.43361 | 133.03114 | 25089 ft | 446 kts | 210° |
| 2026-04-17 22:03 | 35.40514 | 133.01630 | 24576 ft | 437 kts | 209° |
| 2026-04-17 22:03 | 35.37794 | 133.00195 | 24112 ft | 414 kts | 210° |
| 2026-04-17 22:03 | 35.35242 | 132.98769 | 23678 ft | 393 kts | 212° |
| 2026-04-17 22:03 | 35.32837 | 132.97336 | 23211 ft | 380 kts | 213° |
| 2026-04-17 22:04 | 35.30478 | 132.95834 | 22768 ft | 383 kts | 214° |
| 2026-04-17 22:04 | 35.28131 | 132.94266 | 22299 ft | 385 kts | 214° |
| 2026-04-17 22:04 | 35.25803 | 132.92666 | 21824 ft | 384 kts | 215° |
| 2026-04-17 22:04 | 35.23487 | 132.91051 | 21374 ft | 383 kts | 215° |
| 2026-04-17 22:05 | 35.21169 | 132.89446 | 20918 ft | 381 kts | 214° |
| 2026-04-17 22:05 | 35.18856 | 132.87865 | 20467 ft | 380 kts | 213° |
| 2026-04-17 22:05 | 35.16541 | 132.86311 | 20043 ft | 379 kts | 213° |
| 2026-04-17 22:05 | 35.14265 | 132.84793 | 19625 ft | 377 kts | 213° |
| 2026-04-17 22:06 | 35.11962 | 132.83259 | 19200 ft | 377 kts | 213° |
| 2026-04-17 22:06 | 35.09664 | 132.81716 | 18787 ft | 377 kts | 213° |
| 2026-04-17 22:06 | 35.07366 | 132.80168 | 18380 ft | 376 kts | 213° |
| 2026-04-17 22:06 | 35.05082 | 132.78627 | 17920 ft | 375 kts | 212° |
| 2026-04-17 22:07 | 35.02797 | 132.77091 | 17439 ft | 374 kts | 212° |
| 2026-04-17 22:07 | 35.00519 | 132.75586 | 16992 ft | 372 kts | 209° |
| 2026-04-17 22:07 | 34.98072 | 132.74512 | 16500 ft | 376 kts | 197° |
| 2026-04-17 22:07 | 34.95480 | 132.74031 | 16071 ft | 378 kts | 188° |
| 2026-04-17 22:08 | 34.92851 | 132.73928 | 15633 ft | 378 kts | 184° |
| 2026-04-17 22:08 | 34.90221 | 132.74008 | 15199 ft | 377 kts | 182° |
| 2026-04-17 22:08 | 34.87612 | 132.74135 | 14775 ft | 372 kts | 182° |
| 2026-04-17 22:08 | 34.85086 | 132.74229 | 14363 ft | 355 kts | 182° |
| 2026-04-17 22:09 | 34.82677 | 132.74260 | 13992 ft | 338 kts | 184° |
| 2026-04-17 22:09 | 34.80373 | 132.74234 | 13588 ft | 324 kts | 185° |
| 2026-04-17 22:09 | 34.78170 | 132.74120 | 13209 ft | 311 kts | 188° |
| 2026-04-17 22:09 | 34.76077 | 132.73908 | 12829 ft | 302 kts | 189° |
| 2026-04-17 22:10 | 34.74013 | 132.73690 | 12468 ft | 293 kts | 188° |
| 2026-04-17 22:10 | 34.72004 | 132.73523 | 12121 ft | 285 kts | 187° |
| 2026-04-17 22:10 | 34.70045 | 132.73410 | 11792 ft | 281 kts | 186° |
| 2026-04-17 22:10 | 34.68077 | 132.73321 | 11487 ft | 286 kts | 186° |
| 2026-04-17 22:11 | 34.66073 | 132.73233 | 11153 ft | 289 kts | 186° |
| 2026-04-17 22:11 | 34.64063 | 132.73143 | 10810 ft | 288 kts | 186° |
| 2026-04-17 22:11 | 34.62062 | 132.73051 | 10482 ft | 287 kts | 186° |
| 2026-04-17 22:11 | 34.60067 | 132.72957 | 10159 ft | 287 kts | 186° |
| 2026-04-17 22:12 | 34.58074 | 132.72860 | 9823 ft | 286 kts | 186° |
| 2026-04-17 22:12 | 34.56099 | 132.72765 | 9449 ft | 282 kts | 185° |
| 2026-04-17 22:12 | 34.54156 | 132.72671 | 9056 ft | 272 kts | 185° |
| 2026-04-17 22:12 | 34.52330 | 132.72590 | 8794 ft | 254 kts | 185° |
| 2026-04-17 22:13 | 34.50601 | 132.72518 | 8431 ft | 243 kts | 186° |
| 2026-04-17 22:13 | 34.48975 | 132.72455 | 8136 ft | 231 kts | 186° |
| 2026-04-17 22:13 | 34.47364 | 132.72395 | 7888 ft | 234 kts | 185° |
| 2026-04-17 22:13 | 34.45723 | 132.72322 | 7648 ft | 237 kts | 186° |
| 2026-04-17 22:14 | 34.44075 | 132.72239 | 7378 ft | 236 kts | 186° |
| 2026-04-17 22:14 | 34.42420 | 132.72146 | 7113 ft | 242 kts | 186° |
| 2026-04-17 22:14 | 34.40739 | 132.72046 | 7015 ft | 241 kts | 185° |
| 2026-04-17 22:14 | 34.39053 | 132.71951 | 7052 ft | 243 kts | 185° |
| 2026-04-17 22:15 | 34.37355 | 132.71863 | 7074 ft | 245 kts | 185° |
| 2026-04-17 22:15 | 34.35652 | 132.71781 | 7083 ft | 245 kts | 185° |
| 2026-04-17 22:15 | 34.33944 | 132.71703 | 7085 ft | 246 kts | 185° |
| 2026-04-17 22:15 | 34.32234 | 132.71629 | 7088 ft | 245 kts | 185° |
| 2026-04-17 22:16 | 34.30529 | 132.71554 | 7087 ft | 245 kts | 185° |
| 2026-04-17 22:16 | 34.28824 | 132.71478 | 7086 ft | 245 kts | 185° |
| 2026-04-17 22:16 | 34.27117 | 132.71400 | 7086 ft | 245 kts | 185° |
| 2026-04-17 22:16 | 34.25413 | 132.71321 | 7088 ft | 246 kts | 185° |
| 2026-04-17 22:17 | 34.23709 | 132.71237 | 7093 ft | 245 kts | 185° |
| 2026-04-17 22:17 | 34.22011 | 132.71146 | 7088 ft | 244 kts | 185° |
| 2026-04-17 22:17 | 34.20336 | 132.71059 | 7085 ft | 243 kts | 184° |
| 2026-04-17 22:17 | 34.18644 | 132.70973 | 7084 ft | 244 kts | 184° |
| 2026-04-17 22:18 | 34.16947 | 132.70900 | 7088 ft | 243 kts | 184° |
| 2026-04-17 22:18 | 34.15254 | 132.70826 | 7082 ft | 243 kts | 184° |
| 2026-04-17 22:18 | 34.13564 | 132.70750 | 7077 ft | 243 kts | 184° |
| 2026-04-17 22:18 | 34.11873 | 132.70672 | 7079 ft | 243 kts | 184° |
| 2026-04-17 22:19 | 34.10183 | 132.70594 | 7076 ft | 243 kts | 184° |
| 2026-04-17 22:19 | 34.08488 | 132.70517 | 7075 ft | 243 kts | 184° |
| 2026-04-17 22:19 | 34.06794 | 132.70441 | 7072 ft | 243 kts | 184° |
| 2026-04-17 22:19 | 34.05104 | 132.70359 | 7071 ft | 243 kts | 184° |
| 2026-04-17 22:20 | 34.03411 | 132.70265 | 7071 ft | 243 kts | 184° |
| 2026-04-17 22:20 | 34.01720 | 132.70174 | 7071 ft | 243 kts | 184° |
| 2026-04-17 22:20 | 34.00026 | 132.70089 | 7069 ft | 243 kts | 184° |
| 2026-04-17 22:20 | 33.98338 | 132.70011 | 7068 ft | 243 kts | 184° |
| 2026-04-17 22:21 | 33.96645 | 132.69935 | 7067 ft | 243 kts | 184° |
| 2026-04-17 22:21 | 33.94954 | 132.69861 | 7067 ft | 243 kts | 184° |
| 2026-04-17 22:21 | 33.93260 | 132.69785 | 7065 ft | 244 kts | 184° |
| 2026-04-17 22:21 | 33.91565 | 132.69710 | 7062 ft | 244 kts | 183° |
| 2026-04-17 22:22 | 33.89872 | 132.69648 | 7063 ft | 243 kts | 183° |
| 2026-04-17 22:22 | 33.88196 | 132.69473 | 7040 ft | 242 kts | 196° |
| 2026-04-17 22:22 | 33.86722 | 132.68543 | 7027 ft | 241 kts | 221° |
| 2026-04-17 22:22 | 33.85999 | 132.67530 | 7035 ft | 242 kts | 238° |
| 2026-04-17 22:23 | 33.85429 | 132.64963 | 7058 ft | 245 kts | 270° |
| 2026-04-17 22:23 | 33.85784 | 132.62960 | 7078 ft | 248 kts | 288° |
| 2026-04-17 22:23 | 33.86531 | 132.61089 | 7085 ft | 249 kts | 297° |
| 2026-04-17 22:23 | 33.87439 | 132.59314 | 7071 ft | 249 kts | 300° |
| 2026-04-17 22:24 | 33.88379 | 132.57566 | 7068 ft | 249 kts | 300° |
| 2026-04-17 22:24 | 33.89291 | 132.55798 | 7067 ft | 248 kts | 299° |
| 2026-04-17 22:24 | 33.89885 | 132.54591 | 7063 ft | 248 kts | 298° |
| 2026-04-17 22:24 | 33.90739 | 132.52785 | 7068 ft | 248 kts | 297° |
| 2026-04-17 22:25 | 33.91576 | 132.50966 | 7068 ft | 248 kts | 296° |
| 2026-04-17 22:25 | 33.92392 | 132.49170 | 7069 ft | 248 kts | 296° |
| 2026-04-17 22:25 | 33.93219 | 132.47350 | 7068 ft | 248 kts | 296° |
| 2026-04-17 22:25 | 33.94049 | 132.45527 | 7069 ft | 248 kts | 296° |
| 2026-04-17 22:26 | 33.94881 | 132.43707 | 7071 ft | 248 kts | 296° |
| 2026-04-17 22:26 | 33.95718 | 132.41883 | 7074 ft | 249 kts | 296° |
| 2026-04-17 22:26 | 33.96554 | 132.40058 | 7080 ft | 249 kts | 296° |
| 2026-04-17 22:26 | 33.97388 | 132.38241 | 7080 ft | 247 kts | 296° |
| 2026-04-17 22:27 | 33.98217 | 132.36433 | 7083 ft | 246 kts | 296° |
| 2026-04-17 22:27 | 33.99043 | 132.34629 | 7074 ft | 247 kts | 296° |
| 2026-04-17 22:27 | 33.99858 | 132.32834 | 6823 ft | 239 kts | 296° |
| 2026-04-17 22:27 | 34.00630 | 132.31122 | 6620 ft | 228 kts | 296° |
| 2026-04-17 22:28 | 34.01404 | 132.29449 | 6311 ft | 229 kts | 296° |
| 2026-04-17 22:28 | 34.02183 | 132.27769 | 5975 ft | 230 kts | 296° |
| 2026-04-17 22:28 | 34.02964 | 132.26084 | 5679 ft | 231 kts | 296° |
| 2026-04-17 22:28 | 34.03749 | 132.24402 | 5396 ft | 230 kts | 299° |
| 2026-04-17 22:29 | 34.04899 | 132.23031 | 5072 ft | 238 kts | 325° |
| 2026-04-17 22:29 | 34.06469 | 132.22373 | 4774 ft | 242 kts | 353° |
| 2026-04-17 22:29 | 34.08101 | 132.22583 | 4604 ft | 238 kts | 19° |
| 2026-04-17 22:29 | 34.09588 | 132.23428 | 4666 ft | 237 kts | 32° |
| 2026-04-17 22:30 | 34.11001 | 132.24480 | 4719 ft | 239 kts | 35° |
| 2026-04-17 22:30 | 34.12409 | 132.25552 | 4721 ft | 240 kts | 34° |
| 2026-04-17 22:30 | 34.13789 | 132.26543 | 4711 ft | 219 kts | 32° |
| 2026-04-17 22:30 | 34.15060 | 132.27394 | 4717 ft | 203 kts | 31° |
| 2026-04-17 22:31 | 34.16288 | 132.28185 | 4871 ft | 191 kts | 30° |
| 2026-04-17 22:31 | 34.17435 | 132.28913 | 5250 ft | 189 kts | 30° |
| 2026-04-17 22:31 | 34.18607 | 132.29667 | 5203 ft | 190 kts | 30° |
| 2026-04-17 22:31 | 34.19773 | 132.30423 | 5161 ft | 193 kts | 30° |
| 2026-04-17 22:32 | 34.20953 | 132.31191 | 4901 ft | 192 kts | 31° |
| 2026-04-17 22:32 | 34.22112 | 132.31966 | 4566 ft | 188 kts | 32° |
| 2026-04-17 22:32 | 34.23224 | 132.32726 | 4271 ft | 184 kts | 31° |
| 2026-04-17 22:32 | 34.24326 | 132.33507 | 3969 ft | 183 kts | 32° |
| 2026-04-17 22:33 | 34.25417 | 132.34287 | 3658 ft | 181 kts | 32° |
| 2026-04-17 22:33 | 34.26497 | 132.35058 | 3386 ft | 180 kts | 32° |
| 2026-04-17 22:33 | 34.27553 | 132.35853 | 3066 ft | 177 kts | 35° |
| 2026-04-17 22:33 | 34.28527 | 132.36644 | 2722 ft | 161 kts | 36° |
| 2026-04-17 22:34 | 34.29408 | 132.37375 | 2510 ft | 150 kts | 36° |
| 2026-04-17 22:34 | 34.30280 | 132.38107 | 2470 ft | 156 kts | 36° |
| 2026-04-17 22:34 | 34.31176 | 132.38863 | 2450 ft | 156 kts | 36° |
| 2026-04-17 22:34 | 34.32093 | 132.39638 | 2396 ft | 166 kts | 36° |
| 2026-04-17 22:35 | 34.33057 | 132.40454 | 2297 ft | 172 kts | 36° |
| 2026-04-17 22:35 | 34.34019 | 132.41272 | 2180 ft | 166 kts | 36° |
| 2026-04-17 22:35 | 34.34949 | 132.42078 | 1913 ft | 164 kts | 39° |
| 2026-04-17 22:35 | 34.35770 | 132.43011 | 1431 ft | 164 kts | 47° |
| 2026-04-17 22:36 | 34.36504 | 132.44024 | 1085 ft | 152 kts | 49° |
| 2026-04-17 22:36 | 34.37222 | 132.44984 | 1218 ft | 157 kts | 46° |
| 2026-04-17 22:36 | 34.38098 | 132.45835 | 1358 ft | 162 kts | 31° |
| 2026-04-17 22:36 | 34.39125 | 132.46403 | 1382 ft | 164 kts | 22° |
| 2026-04-17 22:37 | 34.40174 | 132.46892 | 1513 ft | 163 kts | 21° |
| 2026-04-17 22:37 | 34.41271 | 132.47187 | 1276 ft | 161 kts | 360° |
| 2026-04-17 22:37 | 34.42239 | 132.46597 | 566 ft | 163 kts | 303° |
| 2026-04-17 22:37 | 34.42227 | 132.45298 | 673 ft | 162 kts | 237° |
| 2026-04-17 22:38 | 34.41298 | 132.44597 | 662 ft | 156 kts | 204° |
| 2026-04-17 22:38 | 34.40329 | 132.43958 | 564 ft | 160 kts | 212° |
| 2026-04-17 22:38 | 34.39387 | 132.43254 | 337 ft | 158 kts | 213° |
| 2026-04-17 22:38 | 34.38462 | 132.42596 | 192 ft | 149 kts | 211° |
| 2026-04-17 22:39 | 34.37586 | 132.41997 | 113 ft | 140 kts | 208° |
| 2026-04-17 22:39 | 34.36777 | 132.41462 | 33 ft | 126 kts | 209° |
| 2026-04-17 22:39 | 34.36089 | 132.41012 | 35 ft | 9 kts | 210° |
| 2026-04-17 22:40 | 34.36068 | 132.41001 | 35 ft | 1 kts | 198° |
| 2026-04-17 22:40 | 34.36047 | 132.40992 | 35 ft | 5 kts | 197° |
| 2026-04-17 22:40 | 34.36003 | 132.40983 | 35 ft | 8 kts | 198° |
| 2026-04-17 22:40 | 34.35993 | 132.40959 | 35 ft | 1 kts | 288° |
| 2026-04-17 22:41 | 34.36000 | 132.40955 | 35 ft | 2 kts | 333° |
| 2026-04-17 22:41 | 34.36027 | 132.40961 | 35 ft | 7 kts | 17° |
| 2026-04-17 22:41 | 34.36081 | 132.40993 | 35 ft | 10 kts | 29° |
| 2026-04-17 22:41 | 34.36148 | 132.41038 | 34 ft | 12 kts | 29° |
| 2026-04-17 22:42 | 34.36231 | 132.41094 | 32 ft | 15 kts | 29° |
| 2026-04-17 22:42 | 34.36326 | 132.41158 | 32 ft | 16 kts | 29° |
| 2026-04-17 22:42 | 34.36427 | 132.41225 | 31 ft | 17 kts | 29° |
| 2026-04-17 22:42 | 34.36537 | 132.41298 | 31 ft | 19 kts | 29° |
| 2026-04-17 22:43 | 34.36654 | 132.41376 | 33 ft | 20 kts | 29° |
| 2026-04-17 22:43 | 34.36783 | 132.41461 | 33 ft | 22 kts | 28° |
| 2026-04-17 22:43 | 34.36918 | 132.41550 | 34 ft | 23 kts | 29° |
| 2026-04-17 22:43 | 34.37040 | 132.41631 | 32 ft | 14 kts | 28° |
| 2026-04-17 22:44 | 34.37117 | 132.41682 | 33 ft | 9 kts | 28° |
| 2026-04-17 22:44 | 34.37158 | 132.41717 | 33 ft | 4 kts | 64° |
| 2026-04-17 22:44 | 34.37146 | 132.41755 | 33 ft | 6 kts | 120° |
| 2026-04-17 22:44 | 34.37118 | 132.41793 | 34 ft | 6 kts | 147° |
| 2026-04-17 22:45 | 34.37104 | 132.41801 | 34 ft | 3 kts | 158° |
| 2026-04-17 22:45 | 34.37082 | 132.41799 | 35 ft | 3 kts | 205° |
| 2026-04-17 22:45 | 34.37068 | 132.41789 | 33 ft | 2 kts | 210° |
| 2026-04-17 22:45 | 34.37056 | 132.41790 | 35 ft | 1 kts | 160° |
| 2026-04-17 22:46 | 34.37048 | 132.41801 | 35 ft | 3 kts | 133° |
| 2026-04-17 22:46 | 34.37031 | 132.41826 | 33 ft | 3 kts | 126° |
| 2026-04-17 22:46 | 34.37017 | 132.41855 | 35 ft | 5 kts | 115° |
| 2026-04-17 22:46 | 34.37014 | 132.41864 | 33 ft | 3 kts | 115° |
| 2026-04-17 22:47 | 34.37006 | 132.41881 | 35 ft | 0 kts | 116° |